createdAt,value
2023-03-05T00:01:33.216Z,77.48
2023-03-05T00:04:03.918Z,77.63
2023-03-05T00:06:33.700Z,78.05
2023-03-05T00:09:01.739Z,77.47
2023-03-05T00:11:31.625Z,77.50
2023-03-05T00:14:02.064Z,77.26
2023-03-05T00:16:30.228Z,77.48
2023-03-05T00:19:00.492Z,77.83
2023-03-05T00:21:32.193Z,77.40
2023-03-05T00:24:02.190Z,77.76
2023-03-05T00:26:34.385Z,78.13
2023-03-05T00:29:02.337Z,78.08
2023-03-05T00:31:33.973Z,78.21
2023-03-05T00:34:05.463Z,78.36
2023-03-05T00:36:35.300Z,77.97
2023-03-05T00:39:03.367Z,77.60
2023-03-05T00:41:31.314Z,76.75
2023-03-05T00:43:59.262Z,76.90
2023-03-05T00:46:27.628Z,77.66
2023-03-05T00:48:56.757Z,78.04
2023-03-05T00:51:28.847Z,77.80
2023-03-05T00:53:58.143Z,77.76
2023-03-05T00:56:27.961Z,77.84
2023-03-05T00:58:56.140Z,77.86
2023-03-05T01:01:26.611Z,77.80
2023-03-05T01:03:56.432Z,77.69
2023-03-05T01:06:27.148Z,78.07
2023-03-05T01:08:56.613Z,78.08
2023-03-05T01:11:26.265Z,77.47
2023-03-05T01:13:57.496Z,77.70
2023-03-05T01:16:25.579Z,77.98
2023-03-05T01:18:53.696Z,77.76
2023-03-05T01:21:22.039Z,78.72
2023-03-05T01:23:50.102Z,78.33
2023-03-05T01:26:18.058Z,78.64
2023-03-05T01:28:47.483Z,78.58
2023-03-05T01:31:15.456Z,78.01
2023-03-05T01:33:43.404Z,78.93
2023-03-05T01:36:15.943Z,78.34
2023-03-05T01:38:44.461Z,78.92
2023-03-05T01:41:13.861Z,78.73
2023-03-05T01:43:43.907Z,79.22
2023-03-05T01:46:29.887Z,79.18
2023-03-05T01:49:05.114Z,79.02
2023-03-05T01:51:41.407Z,79.18
2023-03-05T01:54:14.032Z,78.71
2023-03-05T01:56:43.432Z,79.36
2023-03-05T01:59:13.322Z,78.98
2023-03-05T02:01:45.714Z,79.94
2023-03-05T02:04:18.919Z,79.49
2023-03-05T02:06:48.499Z,80.07
2023-03-05T02:09:16.455Z,80.44
2023-03-05T02:11:44.924Z,80.25
2023-03-05T02:14:12.955Z,80.87
2023-03-05T02:16:43.803Z,80.79
2023-03-05T02:19:13.876Z,80.68
2023-03-05T02:21:45.512Z,81.55
2023-03-05T02:24:14.541Z,81.85
2023-03-05T02:26:43.201Z,82.13
2023-03-05T02:29:15.496Z,82.15
2023-03-05T02:31:43.420Z,81.98
2023-03-05T02:34:11.972Z,81.91
2023-03-05T02:36:40.041Z,81.25
2023-03-05T02:39:13.017Z,82.43
2023-03-05T02:41:40.850Z,82.21
2023-03-05T02:44:08.872Z,81.74
2023-03-05T02:46:36.752Z,81.99
2023-03-05T02:49:05.160Z,81.28
2023-03-05T02:51:33.055Z,82.03
2023-03-05T02:54:00.913Z,81.42
2023-03-05T02:56:30.112Z,81.66
2023-03-05T02:58:58.066Z,82.14
2023-03-05T03:01:28.164Z,81.45
2023-03-05T03:03:56.468Z,81.94
2023-03-05T03:06:24.517Z,82.57
2023-03-05T03:08:52.435Z,81.97
2023-03-05T03:11:21.466Z,82.68
2023-03-05T03:13:50.794Z,82.57
2023-03-05T03:16:19.274Z,82.07
2023-03-05T03:18:48.889Z,82.00
2023-03-05T03:21:21.581Z,82.65
2023-03-05T03:23:49.710Z,82.17
2023-03-05T03:26:17.801Z,82.07
2023-03-05T03:28:45.936Z,81.77
2023-03-05T03:31:16.172Z,82.29
2023-03-05T03:33:44.378Z,81.52
2023-03-05T03:36:13.125Z,81.41
2023-03-05T03:38:41.073Z,81.36
2023-03-05T03:41:10.295Z,81.33
2023-03-05T03:43:38.300Z,81.63
2023-03-05T03:46:07.321Z,82.20
2023-03-05T03:48:37.041Z,81.71
2023-03-05T03:51:07.437Z,82.20
2023-03-05T03:53:35.799Z,81.54
2023-03-05T03:56:04.557Z,81.94
2023-03-05T03:58:32.391Z,80.86
2023-03-05T04:01:00.264Z,81.43
2023-03-05T04:03:28.270Z,81.20
2023-03-05T04:05:57.475Z,81.83
2023-03-05T04:08:25.333Z,81.86
2023-03-05T04:10:53.244Z,81.82
2023-03-05T04:13:21.135Z,81.77
2023-03-05T04:15:49.022Z,81.38
2023-03-05T04:18:16.895Z,81.95
2023-03-05T04:20:44.761Z,81.63
2023-03-05T04:23:14.009Z,81.15
2023-03-05T04:25:41.878Z,81.18
2023-03-05T04:28:09.826Z,81.13
2023-03-05T04:30:37.730Z,81.17
2023-03-05T04:33:05.721Z,81.25
2023-03-05T04:35:33.644Z,81.68
2023-03-05T04:38:01.554Z,80.51
2023-03-05T04:40:30.811Z,80.57
2023-03-05T04:42:58.703Z,80.42
2023-03-05T04:45:26.535Z,80.54
2023-03-05T04:47:54.709Z,81.13
2023-03-05T04:50:23.077Z,81.23
2023-03-05T04:52:51.067Z,80.93
2023-03-05T04:55:20.048Z,80.30
2023-03-05T04:57:49.267Z,80.93
2023-03-05T05:00:19.065Z,80.65
2023-03-05T05:02:49.657Z,80.79
2023-03-05T05:05:22.676Z,81.42
2023-03-05T05:07:50.766Z,80.55
2023-03-05T05:10:18.794Z,80.51
2023-03-05T05:12:46.727Z,80.26
2023-03-05T05:15:16.021Z,80.50
2023-03-05T05:17:43.870Z,80.14
2023-03-05T05:20:14.390Z,81.49
2023-03-05T05:22:44.147Z,80.86
2023-03-05T05:25:12.991Z,81.14
2023-03-05T05:27:41.428Z,82.40
2023-03-05T05:30:10.717Z,82.33
2023-03-05T05:32:39.997Z,82.65
2023-03-05T05:35:08.811Z,82.33
2023-03-05T05:37:36.793Z,81.58
2023-03-05T05:40:06.600Z,81.46
2023-03-05T05:42:34.866Z,81.73
2023-03-05T05:45:03.375Z,81.99
2023-03-05T05:47:31.317Z,81.63
2023-03-05T05:50:00.704Z,80.90
2023-03-05T05:52:28.615Z,81.07
2023-03-05T05:54:56.770Z,81.85
2023-03-05T05:57:25.086Z,81.70
2023-03-05T05:59:53.364Z,81.64
2023-03-05T06:02:27.273Z,81.93
2023-03-05T06:04:57.825Z,81.18
2023-03-05T06:07:27.381Z,81.11
2023-03-05T06:09:55.237Z,81.32
2023-03-05T06:12:23.106Z,81.43
2023-03-05T06:14:50.974Z,81.03
2023-03-05T06:17:28.734Z,81.10
2023-03-05T06:19:58.339Z,81.36
2023-03-05T06:22:28.141Z,80.80
2023-03-05T06:24:56.056Z,80.87
2023-03-05T06:27:23.916Z,81.26
2023-03-05T06:29:53.827Z,81.85
2023-03-05T06:32:21.780Z,81.06
2023-03-05T06:34:50.030Z,81.33
2023-03-05T06:37:17.895Z,81.16
2023-03-05T06:39:47.169Z,80.74
2023-03-05T06:42:17.668Z,80.95
2023-03-05T06:44:47.255Z,80.80
2023-03-05T06:47:16.291Z,80.63
2023-03-05T06:49:44.112Z,80.56
2023-03-05T06:52:12.795Z,81.33
2023-03-05T06:54:40.747Z,80.78
2023-03-05T06:57:11.081Z,80.83
2023-03-05T06:59:38.960Z,80.73
2023-03-05T07:02:07.365Z,80.66
2023-03-05T07:04:35.230Z,80.95
2023-03-05T07:07:03.041Z,81.04
2023-03-05T07:09:31.745Z,80.38
2023-03-05T07:11:59.644Z,80.75
2023-03-05T07:14:28.935Z,81.22
2023-03-05T07:16:56.804Z,81.36
2023-03-05T07:19:24.635Z,81.58
2023-03-05T07:21:52.484Z,81.84
2023-03-05T07:24:20.320Z,82.00
2023-03-05T07:26:49.056Z,82.03
2023-03-05T07:29:17.009Z,81.54
2023-03-05T07:31:46.198Z,82.11
2023-03-05T07:34:14.064Z,81.59
2023-03-05T07:36:43.020Z,82.17
2023-03-05T07:39:13.100Z,82.19
2023-03-05T07:41:41.032Z,81.94
2023-03-05T07:44:08.929Z,82.54
2023-03-05T07:46:37.300Z,82.34
2023-03-05T07:49:06.695Z,82.95
2023-03-05T07:51:34.817Z,82.58
2023-03-05T07:54:02.755Z,82.25
2023-03-05T07:56:36.187Z,82.48
2023-03-05T07:59:07.628Z,82.55
2023-03-05T08:01:36.468Z,82.49
2023-03-05T08:04:06.759Z,82.51
2023-03-05T08:06:35.100Z,82.04
2023-03-05T08:09:02.952Z,82.04
2023-03-05T08:11:30.928Z,82.51
2023-03-05T08:13:59.551Z,83.12
2023-03-05T08:16:27.587Z,82.98
2023-03-05T08:18:57.463Z,82.50
2023-03-05T08:21:29.313Z,82.57
2023-03-05T08:23:57.562Z,82.84
2023-03-05T08:26:31.398Z,82.63
2023-03-05T08:28:59.818Z,83.69
2023-03-05T08:31:30.225Z,82.76
2023-03-05T08:34:00.748Z,83.65
2023-03-05T08:36:30.805Z,83.12
2023-03-05T08:38:59.648Z,83.33
2023-03-05T08:41:27.914Z,83.68
2023-03-05T08:43:55.800Z,82.80
2023-03-05T08:46:23.809Z,82.97
2023-03-05T08:48:52.049Z,82.77
2023-03-05T08:51:25.411Z,82.53
2023-03-05T08:53:56.121Z,82.95
2023-03-05T08:56:25.379Z,82.92
2023-03-05T08:58:53.213Z,82.30
2023-03-05T09:01:21.154Z,82.20
2023-03-05T09:03:49.064Z,82.81
2023-03-05T09:06:16.993Z,81.95
2023-03-05T09:08:44.878Z,82.38
2023-03-05T09:11:39.959Z,81.91
2023-03-05T09:14:08.815Z,82.10
2023-03-05T09:16:38.506Z,81.92
2023-03-05T09:19:06.430Z,81.72
2023-03-05T09:21:34.509Z,80.97
2023-03-05T09:24:02.361Z,81.00
2023-03-05T09:26:31.700Z,81.19
2023-03-05T09:28:59.656Z,81.46
2023-03-05T09:31:27.555Z,81.47
2023-03-05T09:33:55.466Z,80.82
2023-03-05T09:36:27.003Z,80.85
2023-03-05T09:38:55.644Z,80.47
2023-03-05T09:41:37.073Z,80.82
2023-03-05T09:44:23.533Z,80.20
2023-03-05T09:46:56.081Z,79.87
2023-03-05T09:49:40.399Z,79.08
2023-03-05T09:52:19.372Z,79.18
2023-03-05T09:54:54.168Z,78.79
2023-03-05T09:57:36.474Z,78.58
2023-03-05T10:00:17.529Z,78.63
2023-03-05T10:02:53.507Z,78.47
2023-03-05T10:05:28.837Z,78.90
2023-03-05T10:08:02.489Z,78.52
2023-03-05T10:10:41.595Z,79.60
2023-03-05T10:13:24.112Z,79.05
2023-03-05T10:16:07.263Z,79.03
2023-03-05T10:18:47.559Z,78.97
2023-03-05T10:21:22.407Z,79.71
2023-03-05T10:24:06.364Z,78.94
2023-03-05T10:26:53.409Z,78.65
2023-03-05T10:29:48.490Z,79.45
2023-03-05T10:32:29.789Z,79.41
2023-03-05T10:35:16.543Z,78.74
2023-03-05T10:38:14.221Z,79.03
2023-03-05T10:40:52.118Z,78.32
2023-03-05T10:43:29.911Z,76.98
2023-03-05T10:46:01.049Z,76.81
2023-03-05T10:48:38.083Z,76.84
2023-03-05T10:51:14.507Z,77.53
2023-03-05T10:53:55.969Z,77.16
2023-03-05T10:56:26.505Z,77.24
2023-03-05T10:58:55.212Z,77.63
2023-03-05T11:01:28.092Z,77.42
2023-03-05T11:03:59.445Z,77.20
2023-03-05T11:06:34.975Z,76.13
2023-03-05T11:09:27.886Z,76.17
2023-03-05T11:12:18.274Z,76.27
2023-03-05T11:14:48.885Z,75.63
2023-03-05T11:17:31.729Z,75.22
2023-03-05T11:20:30.415Z,74.98
2023-03-05T11:23:12.721Z,74.88
2023-03-05T11:26:05.973Z,74.39
2023-03-05T11:28:37.169Z,74.39
2023-03-05T11:31:09.510Z,75.93
2023-03-05T11:33:39.705Z,75.72
2023-03-05T11:36:14.996Z,76.02
2023-03-05T11:38:48.184Z,74.29
2023-03-05T11:41:30.343Z,75.05
2023-03-05T11:44:03.807Z,74.33
2023-03-05T11:46:42.140Z,74.72
2023-03-05T11:49:17.698Z,74.27
2023-03-05T11:51:57.315Z,73.74
2023-03-05T11:54:34.868Z,73.90
2023-03-05T11:57:04.933Z,74.10
2023-03-05T11:59:39.658Z,74.62
2023-03-05T12:02:19.587Z,73.55
2023-03-05T12:04:51.751Z,73.12
2023-03-05T12:07:28.423Z,73.13
2023-03-05T12:09:56.470Z,73.68
2023-03-05T12:12:38.427Z,72.93
2023-03-05T12:15:37.765Z,73.21
2023-03-05T12:18:20.093Z,73.27
2023-03-05T12:21:01.733Z,73.53
2023-03-05T12:23:29.848Z,73.79
2023-03-05T12:26:01.347Z,72.97
2023-03-05T12:28:58.917Z,73.01
2023-03-05T12:31:39.447Z,73.14
2023-03-05T12:34:38.415Z,72.17
2023-03-05T12:37:12.484Z,71.49
2023-03-05T12:39:58.476Z,70.36
2023-03-05T12:42:53.874Z,70.96
2023-03-05T12:45:33.919Z,70.10
2023-03-05T12:48:43.789Z,69.68
2023-03-05T12:51:28.151Z,69.89
2023-03-05T12:53:57.652Z,71.43
2023-03-05T12:56:32.732Z,71.29
2023-03-05T12:59:04.725Z,69.83
2023-03-05T13:01:47.179Z,70.28
2023-03-05T13:04:21.415Z,70.91
2023-03-05T13:06:59.957Z,71.75
2023-03-05T13:09:31.831Z,71.88
2023-03-05T13:11:59.895Z,72.17
2023-03-05T13:14:35.875Z,72.23
2023-03-05T13:17:24.876Z,72.28
2023-03-05T13:19:53.568Z,72.40
2023-03-05T13:22:21.617Z,72.48
2023-03-05T13:24:50.964Z,72.77
2023-03-05T13:27:29.720Z,72.66
2023-03-05T13:29:57.606Z,71.75
2023-03-05T13:32:28.686Z,71.34
2023-03-05T13:34:59.705Z,71.77
2023-03-05T13:37:32.531Z,72.90
2023-03-05T13:40:07.358Z,73.18
2023-03-05T13:42:37.421Z,72.86
2023-03-05T13:45:08.173Z,72.58
2023-03-05T13:47:37.085Z,72.32
2023-03-05T13:50:07.722Z,72.35
2023-03-05T13:52:37.269Z,72.21
2023-03-05T13:55:15.326Z,72.37
2023-03-05T13:57:46.126Z,72.56
2023-03-05T14:00:30.722Z,71.89
2023-03-05T14:03:02.308Z,71.59
2023-03-05T14:05:32.044Z,72.03
2023-03-05T14:07:59.975Z,71.67
2023-03-05T14:10:37.355Z,72.35
2023-03-05T14:13:12.483Z,71.47
2023-03-05T14:15:41.595Z,69.95
2023-03-05T14:18:18.074Z,70.15
2023-03-05T14:21:01.785Z,70.10
2023-03-05T14:23:39.218Z,71.02
2023-03-05T14:26:33.393Z,70.38
2023-03-05T14:29:03.455Z,70.52
2023-03-05T14:31:38.026Z,69.70
2023-03-05T14:34:08.378Z,69.03
2023-03-05T14:36:36.436Z,68.82
2023-03-05T14:39:04.376Z,69.09
2023-03-05T14:41:39.160Z,69.85
2023-03-05T14:44:15.118Z,69.59
2023-03-05T14:46:44.160Z,70.42
2023-03-05T14:49:12.081Z,69.40
2023-03-05T14:51:44.681Z,69.78
2023-03-05T14:54:21.724Z,69.96
2023-03-05T14:56:51.252Z,68.35
2023-03-05T14:59:21.282Z,68.34
2023-03-05T15:01:50.414Z,68.46
2023-03-05T15:04:20.129Z,68.23
2023-03-05T15:06:51.240Z,69.42
2023-03-05T15:09:21.121Z,67.71
2023-03-05T15:11:51.080Z,66.28
2023-03-05T15:14:18.994Z,66.59
2023-03-05T15:16:48.815Z,66.89
2023-03-05T15:19:16.792Z,66.56
2023-03-05T15:21:44.768Z,66.21
2023-03-05T15:24:14.738Z,67.19
2023-03-05T15:26:42.678Z,67.89
2023-03-05T15:29:12.001Z,68.12
2023-03-05T15:31:40.595Z,68.64
2023-03-05T15:34:08.708Z,69.17
2023-03-05T15:36:36.604Z,68.91
2023-03-05T15:39:04.627Z,69.64
2023-03-05T15:41:32.479Z,70.17
2023-03-05T15:44:00.436Z,71.19
2023-03-05T15:46:29.695Z,72.12
2023-03-05T15:48:57.753Z,72.23
2023-03-05T15:51:25.696Z,72.73
2023-03-05T15:53:54.397Z,72.86
2023-03-05T15:56:25.503Z,72.60
2023-03-05T15:58:53.594Z,72.36
2023-03-05T16:01:23.279Z,72.72
2023-03-05T16:03:52.856Z,73.78
2023-03-05T16:06:24.855Z,73.74
2023-03-05T16:09:00.144Z,73.16
2023-03-05T16:11:29.060Z,73.83
2023-03-05T16:13:58.431Z,74.04
2023-03-05T16:16:27.046Z,74.08
2023-03-05T16:18:57.654Z,74.23
2023-03-05T16:21:26.017Z,74.53
2023-03-05T16:23:54.041Z,74.05
2023-03-05T16:26:21.961Z,74.20
2023-03-05T16:28:49.849Z,74.08
2023-03-05T16:31:17.817Z,73.94
2023-03-05T16:33:45.723Z,74.32
2023-03-05T16:36:35.394Z,74.37
2023-03-05T16:39:05.462Z,73.95
2023-03-05T16:41:34.195Z,74.48
2023-03-05T16:44:02.111Z,75.20
2023-03-05T16:46:34.024Z,74.43
2023-03-05T16:49:03.119Z,75.12
2023-03-05T16:51:32.534Z,74.56
2023-03-05T16:54:00.440Z,74.82
2023-03-05T16:56:28.457Z,74.17
2023-03-05T16:58:57.149Z,74.71
2023-03-05T17:01:25.541Z,74.72
2023-03-05T17:03:53.774Z,74.46
2023-03-05T17:06:24.676Z,74.27
2023-03-05T17:08:54.881Z,74.53
2023-03-05T17:11:23.184Z,74.59
2023-03-05T17:13:51.106Z,73.89
2023-03-05T17:16:20.174Z,74.25
2023-03-05T17:18:48.148Z,74.29
2023-03-05T17:21:17.308Z,74.03
2023-03-05T17:23:45.460Z,74.71
2023-03-05T17:26:17.619Z,74.48
2023-03-05T17:28:46.028Z,74.42
2023-03-05T17:31:15.405Z,74.39
2023-03-05T17:33:44.227Z,74.73
2023-03-05T17:36:15.971Z,75.00
2023-03-05T17:38:44.342Z,74.90
2023-03-05T17:41:12.440Z,74.64
2023-03-05T17:43:41.746Z,74.18
2023-03-05T17:46:09.787Z,74.30
2023-03-05T17:48:39.199Z,74.77
2023-03-05T17:51:07.373Z,75.54
2023-03-05T17:53:36.036Z,74.69
2023-03-05T17:56:08.116Z,75.13
2023-03-05T17:58:36.218Z,75.64
2023-03-05T18:01:06.809Z,75.89
2023-03-05T18:03:35.340Z,75.65
2023-03-05T18:06:05.047Z,76.11
2023-03-05T18:08:33.059Z,75.86
2023-03-05T18:11:00.982Z,75.47
2023-03-05T18:13:28.863Z,76.34
2023-03-05T18:15:59.452Z,76.39
2023-03-05T18:18:28.724Z,76.05
2023-03-05T18:20:56.678Z,76.08
2023-03-05T18:23:24.715Z,75.97
2023-03-05T18:25:52.682Z,76.48
2023-03-05T18:28:20.707Z,76.01
2023-03-05T18:30:48.936Z,75.88
2023-03-05T18:33:20.455Z,76.24
2023-03-05T18:35:52.494Z,75.68
2023-03-05T18:38:20.721Z,76.20
2023-03-05T18:40:51.292Z,76.41
2023-03-05T18:43:21.204Z,75.78
2023-03-05T18:45:50.008Z,75.62
2023-03-05T18:48:18.298Z,75.60
2023-03-05T18:50:46.848Z,76.54
2023-03-05T18:53:19.567Z,75.64
2023-03-05T18:55:48.356Z,76.10
2023-03-05T18:58:17.579Z,75.60
2023-03-05T19:00:46.938Z,75.59
2023-03-05T19:03:15.154Z,75.64
2023-03-05T19:05:43.249Z,74.77
2023-03-05T19:08:11.573Z,75.33
2023-03-05T19:10:40.968Z,75.12
2023-03-05T19:13:18.734Z,75.13
2023-03-05T19:15:46.780Z,75.09
2023-03-05T19:18:14.730Z,75.29
2023-03-05T19:20:42.662Z,76.00
2023-03-05T19:23:10.658Z,75.71
2023-03-05T19:25:40.972Z,75.16
2023-03-05T19:28:08.902Z,75.21
2023-03-05T19:30:36.862Z,75.43
2023-03-05T19:33:06.253Z,75.31
2023-03-05T19:35:34.398Z,75.60
2023-03-05T19:38:02.364Z,75.36
2023-03-05T19:40:30.418Z,74.85
2023-03-05T19:43:00.086Z,74.89
2023-03-05T19:45:28.149Z,75.43
2023-03-05T19:47:56.074Z,75.57
2023-03-05T19:50:24.223Z,75.23
2023-03-05T19:52:52.177Z,75.06
2023-03-05T19:55:20.598Z,75.31
2023-03-05T19:57:48.682Z,74.90
2023-03-05T20:00:19.103Z,75.00
2023-03-05T20:02:48.584Z,74.56
2023-03-05T20:05:16.542Z,73.84
2023-03-05T20:07:44.483Z,73.79
2023-03-05T20:10:13.427Z,73.82
2023-03-05T20:12:41.335Z,74.53
2023-03-05T20:15:09.833Z,73.77
2023-03-05T20:17:39.201Z,74.48
2023-03-05T20:20:08.502Z,74.17
2023-03-05T20:22:36.395Z,74.47
2023-03-05T20:25:04.512Z,73.52
2023-03-05T20:27:32.428Z,74.04
2023-03-05T20:30:00.401Z,73.33
2023-03-05T20:32:28.478Z,73.97
2023-03-05T20:34:57.713Z,73.22
2023-03-05T20:37:31.472Z,73.52
2023-03-05T20:39:59.322Z,73.44
2023-03-05T20:42:28.499Z,73.67
2023-03-05T20:44:56.426Z,73.91
2023-03-05T20:47:32.354Z,73.40
2023-03-05T20:50:01.673Z,73.17
2023-03-05T20:52:29.748Z,73.66
2023-03-05T20:54:57.708Z,73.68
2023-03-05T20:57:25.749Z,74.06
2023-03-05T20:59:53.626Z,73.51
2023-03-05T21:02:21.624Z,73.55
2023-03-05T21:04:49.623Z,74.18
2023-03-05T21:07:18.865Z,74.02
2023-03-05T21:09:46.848Z,73.59
2023-03-05T21:12:14.878Z,73.46
2023-03-05T21:14:42.877Z,73.83
2023-03-05T21:17:11.260Z,73.75
2023-03-05T21:19:40.093Z,74.13
2023-03-05T21:22:08.067Z,73.71
2023-03-05T21:24:52.375Z,73.53
2023-03-05T21:27:20.569Z,73.52
2023-03-05T21:29:48.887Z,73.94
2023-03-05T21:32:16.980Z,73.04
2023-03-05T21:34:45.121Z,73.53
2023-03-05T21:37:14.658Z,73.83
2023-03-05T21:39:44.088Z,73.33
2023-03-05T21:42:12.038Z,73.19
2023-03-05T21:44:40.078Z,73.54
2023-03-05T21:47:07.964Z,73.00
2023-03-05T21:49:35.967Z,73.32
2023-03-05T21:52:09.127Z,73.83
2023-03-05T21:54:37.619Z,73.80
2023-03-05T21:57:09.061Z,73.67
2023-03-05T21:59:40.484Z,73.02
2023-03-05T22:02:10.891Z,73.57
2023-03-05T22:04:38.786Z,73.14
2023-03-05T22:07:06.820Z,73.35
2023-03-05T22:09:34.828Z,73.65
2023-03-05T22:12:04.769Z,74.49
2023-03-05T22:14:34.028Z,74.35
2023-03-05T22:17:03.304Z,74.52
2023-03-05T22:19:31.338Z,74.02
2023-03-05T22:21:59.318Z,74.42
2023-03-05T22:24:27.228Z,74.44
2023-03-05T22:26:55.094Z,73.64
2023-03-05T22:29:22.960Z,74.10
2023-03-05T22:31:55.222Z,74.93
2023-03-05T22:34:23.103Z,74.86
2023-03-05T22:36:50.972Z,75.00
2023-03-05T22:39:18.920Z,75.59
2023-03-05T22:41:46.820Z,74.83
2023-03-05T22:44:14.743Z,74.76
2023-03-05T22:46:44.334Z,75.19
2023-03-05T22:49:13.552Z,75.54
2023-03-05T22:51:41.435Z,75.08
2023-03-05T22:54:09.328Z,74.49
2023-03-05T22:56:37.792Z,74.47
2023-03-05T22:59:05.662Z,75.19
2023-03-05T23:01:33.508Z,75.32
2023-03-05T23:04:08.143Z,76.45
2023-03-05T23:06:37.383Z,76.62
2023-03-05T23:09:05.454Z,75.97
2023-03-05T23:11:33.424Z,75.90
2023-03-05T23:14:01.294Z,75.95
2023-03-05T23:16:29.188Z,75.90
2023-03-05T23:18:57.122Z,76.15
2023-03-05T23:21:24.965Z,75.73
2023-03-05T23:23:56.530Z,75.48
2023-03-05T23:26:24.535Z,75.20
2023-03-05T23:28:52.401Z,75.51
2023-03-05T23:31:20.726Z,75.69
2023-03-05T23:33:48.631Z,75.56
2023-03-05T23:36:19.877Z,75.62
2023-03-05T23:38:47.764Z,75.32
2023-03-05T23:41:17.034Z,76.08
2023-03-05T23:43:44.913Z,76.56
2023-03-05T23:46:13.517Z,76.68
2023-03-05T23:48:41.675Z,77.08
2023-03-05T23:51:10.680Z,77.02
2023-03-05T23:53:38.928Z,76.36
2023-03-05T23:56:11.059Z,76.14
2023-03-05T23:58:42.617Z,76.61
